createdAt,value
2022-10-17T00:04:25.275Z,48.81
2022-10-17T00:09:24.041Z,48.93
2022-10-17T00:14:22.797Z,48.98
2022-10-17T00:19:22.993Z,48.41
2022-10-17T00:24:21.780Z,48.41
2022-10-17T00:29:20.510Z,48.27
2022-10-17T00:34:20.003Z,47.65
2022-10-17T00:39:20.856Z,47.49
2022-10-17T00:44:57.051Z,47.55
2022-10-17T00:49:56.189Z,47.94
2022-10-17T00:55:03.936Z,47.93
2022-10-17T01:00:08.227Z,47.88
2022-10-17T01:05:08.234Z,47.95
2022-10-17T01:10:10.320Z,48.04
2022-10-17T01:15:15.391Z,47.87
2022-10-17T01:20:55.642Z,47.99
2022-10-17T01:26:06.162Z,48.58
2022-10-17T01:31:11.142Z,48.74
2022-10-17T01:36:13.986Z,48.48
2022-10-17T01:41:18.403Z,48.94
2022-10-17T01:46:24.534Z,48.54
2022-10-17T01:51:28.225Z,48.92
2022-10-17T01:56:31.482Z,49.59
2022-10-17T02:01:32.877Z,50.45
2022-10-17T02:06:36.275Z,50.21
2022-10-17T02:11:41.390Z,50.65
2022-10-17T02:16:49.462Z,51.01
2022-10-17T02:21:55.191Z,50.83
2022-10-17T02:27:03.291Z,50.66
2022-10-17T02:32:07.013Z,49.81
2022-10-17T02:37:08.372Z,49.33
2022-10-17T02:42:10.688Z,49.03
2022-10-17T02:47:20.125Z,48.88
2022-10-17T02:52:27.958Z,48.94
2022-10-17T02:57:32.234Z,48.67
2022-10-17T03:02:40.399Z,48.79
2022-10-17T03:07:41.117Z,48.61
2022-10-17T03:12:40.431Z,48.35
2022-10-17T03:17:42.339Z,48.46
2022-10-17T03:22:42.076Z,48.32
2022-10-17T03:27:42.173Z,48.42
2022-10-17T03:32:42.805Z,49.51
2022-10-17T03:37:41.720Z,49.54
2022-10-17T03:42:40.809Z,48.99
2022-10-17T03:47:40.117Z,48.81
2022-10-17T03:52:40.733Z,48.58
2022-10-17T03:57:45.401Z,48.99
2022-10-17T04:02:48.478Z,49.85
2022-10-17T04:07:54.241Z,49.87
2022-10-17T04:13:03.243Z,49.80
2022-10-17T04:18:02.537Z,49.99
2022-10-17T04:23:03.232Z,50.08
2022-10-17T04:28:02.059Z,50.11
2022-10-17T04:33:01.119Z,49.92
2022-10-17T04:38:02.680Z,50.01
2022-10-17T04:43:01.607Z,50.05
2022-10-17T04:48:07.136Z,49.86
2022-10-17T04:53:07.693Z,49.93
2022-10-17T04:58:06.972Z,49.58
2022-10-17T05:03:06.149Z,49.96
2022-10-17T05:08:05.316Z,49.94
2022-10-17T05:13:10.282Z,50.35
2022-10-17T05:18:09.204Z,50.51
2022-10-17T05:23:24.410Z,51.20
2022-10-17T05:28:45.274Z,52.07
2022-10-17T05:34:18.688Z,51.99
2022-10-17T05:39:19.831Z,52.34
2022-10-17T05:44:21.898Z,51.74
2022-10-17T05:49:33.845Z,51.32
2022-10-17T06:00:18.590Z,51.28
2022-10-17T06:05:25.900Z,51.41
2022-10-17T06:10:25.120Z,51.13
2022-10-17T06:15:26.739Z,51.10
2022-10-17T06:20:33.888Z,51.63
2022-10-17T06:25:34.216Z,51.53
2022-10-17T06:30:34.512Z,51.54
2022-10-17T06:35:33.577Z,52.29
2022-10-17T06:40:32.527Z,52.45
2022-10-17T06:45:32.138Z,52.93
2022-10-17T06:51:02.047Z,52.26
2022-10-17T06:56:03.178Z,52.26
2022-10-17T07:01:25.368Z,51.81
2022-10-17T07:06:29.784Z,51.46
2022-10-17T07:11:31.984Z,51.61
2022-10-17T07:16:33.212Z,51.37
2022-10-17T07:22:02.579Z,51.15
2022-10-17T07:27:03.141Z,50.74
2022-10-17T07:32:04.084Z,50.55
2022-10-17T07:37:07.008Z,51.46
2022-10-17T07:42:07.578Z,50.97
2022-10-17T07:47:07.163Z,51.01
2022-10-17T07:52:14.472Z,50.88
2022-10-17T07:57:13.423Z,50.40
2022-10-17T08:02:19.959Z,71.45
2022-10-17T08:07:25.395Z,55.22
2022-10-17T08:12:27.627Z,51.74
2022-10-17T08:17:27.285Z,51.30
2022-10-17T08:22:28.165Z,50.76
2022-10-17T08:27:30.484Z,50.07
2022-10-17T08:32:30.705Z,49.47
2022-10-17T08:37:32.791Z,47.25
2022-10-17T08:42:59.393Z,44.64
2022-10-17T08:48:00.777Z,42.46
2022-10-17T08:53:07.429Z,40.33
2022-10-17T08:58:14.618Z,38.20
2022-10-17T09:03:24.413Z,35.12
2022-10-17T09:08:33.652Z,32.25
2022-10-17T09:13:45.043Z,31.27
2022-10-17T09:18:47.732Z,29.16
2022-10-17T09:23:59.446Z,28.89
2022-10-17T09:29:18.618Z,24.66
2022-10-17T09:34:17.599Z,24.82
2022-10-17T09:39:20.848Z,23.96
2022-10-17T09:44:22.585Z,22.93
2022-10-17T09:49:28.535Z,22.28
2022-10-17T09:54:41.468Z,21.82
2022-10-17T09:59:42.046Z,20.26
2022-10-17T10:05:09.023Z,20.96
2022-10-17T10:10:27.660Z,21.30
2022-10-17T10:15:37.295Z,23.68
2022-10-17T10:20:38.038Z,21.22
2022-10-17T10:25:38.148Z,18.80
2022-10-17T10:30:53.717Z,18.23
2022-10-17T10:36:02.237Z,19.23
2022-10-17T10:41:10.075Z,19.23
2022-10-17T10:46:26.838Z,18.81
2022-10-17T10:51:31.493Z,18.16
2022-10-17T10:56:38.744Z,18.62
2022-10-17T11:01:48.656Z,18.49
2022-10-17T11:06:49.050Z,18.10
2022-10-17T11:11:55.909Z,16.65
2022-10-17T11:17:04.379Z,19.62
2022-10-17T11:22:12.975Z,17.43
2022-10-17T11:27:13.160Z,16.17
2022-10-17T11:32:16.984Z,16.14
2022-10-17T11:37:20.811Z,16.64
2022-10-17T11:42:27.533Z,15.86
2022-10-17T11:47:35.805Z,16.90
2022-10-17T11:52:56.977Z,16.87
2022-10-17T11:58:24.536Z,15.74
2022-10-17T12:03:36.031Z,15.89
2022-10-17T12:08:45.900Z,16.18
2022-10-17T12:13:52.078Z,15.85
2022-10-17T12:19:31.356Z,15.91
2022-10-17T12:24:44.870Z,16.19
2022-10-17T12:29:45.320Z,17.59
2022-10-17T12:34:53.218Z,21.99
2022-10-17T12:40:03.287Z,22.14
2022-10-17T12:45:46.358Z,15.63
2022-10-17T12:56:37.227Z,16.69
2022-10-17T13:01:41.157Z,17.37
2022-10-17T13:06:46.588Z,16.83
2022-10-17T13:11:45.616Z,16.95
2022-10-17T13:16:54.504Z,16.47
2022-10-17T13:21:56.333Z,17.66
2022-10-17T13:27:27.588Z,16.96
2022-10-17T13:32:47.902Z,17.25
2022-10-17T13:37:53.956Z,18.37
2022-10-17T13:43:01.732Z,17.02
2022-10-17T13:48:06.923Z,18.46
2022-10-17T13:53:15.880Z,17.34
2022-10-17T13:58:18.727Z,17.34
2022-10-17T14:03:20.422Z,16.78
2022-10-17T14:08:23.315Z,17.88
2022-10-17T14:13:25.936Z,16.43
2022-10-17T14:18:35.787Z,16.39
2022-10-17T14:23:39.118Z,18.14
2022-10-17T14:28:38.997Z,18.47
2022-10-17T14:33:44.061Z,17.11
2022-10-17T14:38:53.651Z,17.58
2022-10-17T14:44:05.004Z,17.64
2022-10-17T14:49:08.760Z,17.72
2022-10-17T14:54:21.993Z,17.86
2022-10-17T14:59:52.731Z,18.03
2022-10-17T15:04:44.466Z,17.93
2022-10-17T15:09:43.732Z,18.29
2022-10-17T15:14:43.406Z,18.21
2022-10-17T15:19:46.506Z,18.35
2022-10-17T15:24:46.309Z,19.50
2022-10-17T15:29:45.978Z,20.08
2022-10-17T15:34:46.709Z,20.58
2022-10-17T15:39:48.184Z,21.59
2022-10-17T15:44:50.064Z,22.16
2022-10-17T15:49:50.545Z,23.26
2022-10-17T15:54:49.580Z,23.72
2022-10-17T15:59:50.463Z,24.86
2022-10-17T16:04:57.953Z,25.53
2022-10-17T16:09:57.113Z,26.58
2022-10-17T16:14:57.858Z,27.33
2022-10-17T16:19:58.291Z,28.13
2022-10-17T16:24:59.370Z,29.14
2022-10-17T16:29:58.459Z,49.60
2022-10-17T16:35:03.056Z,51.87
2022-10-17T16:40:02.075Z,36.23
2022-10-17T16:45:01.083Z,33.94
2022-10-17T16:50:01.340Z,33.29
2022-10-17T16:55:04.458Z,33.31
2022-10-17T17:00:03.512Z,33.25
2022-10-17T17:05:03.721Z,33.52
2022-10-17T17:10:02.782Z,33.96
2022-10-17T17:15:01.693Z,33.92
2022-10-17T17:20:00.617Z,34.43
2022-10-17T17:25:01.036Z,34.17
2022-10-17T17:30:00.016Z,34.70
2022-10-17T17:34:58.952Z,34.73
2022-10-17T17:40:00.710Z,34.98
2022-10-17T17:44:59.535Z,34.81
2022-10-17T17:49:58.397Z,35.08
2022-10-17T17:54:57.281Z,35.26
2022-10-17T17:59:57.891Z,35.41
2022-10-17T18:04:56.755Z,36.20
2022-10-17T18:09:57.138Z,36.29
2022-10-17T18:15:01.133Z,36.84
2022-10-17T18:20:02.747Z,37.13
2022-10-17T18:25:02.179Z,37.11
2022-10-17T18:30:14.832Z,36.82
2022-10-17T18:35:13.942Z,37.29
2022-10-17T18:40:13.639Z,37.71
2022-10-17T18:45:14.390Z,38.05
2022-10-17T18:50:13.220Z,37.61
2022-10-17T18:55:12.039Z,38.16
2022-10-17T19:00:13.860Z,38.16
2022-10-17T19:05:12.813Z,38.37
2022-10-17T19:10:11.673Z,39.10
2022-10-17T19:15:10.934Z,39.28
2022-10-17T19:20:12.142Z,39.20
2022-10-17T19:25:11.301Z,39.62
2022-10-17T19:30:16.542Z,39.59
2022-10-17T19:35:19.525Z,40.18
2022-10-17T19:40:21.624Z,40.25
2022-10-17T19:45:29.027Z,40.26
2022-10-17T19:50:30.120Z,40.24
2022-10-17T19:55:29.198Z,40.62
2022-10-17T20:00:28.463Z,41.18
2022-10-17T20:05:28.253Z,41.17
2022-10-17T20:10:30.290Z,41.30
2022-10-17T20:15:29.305Z,41.35
2022-10-17T20:20:29.421Z,41.55
2022-10-17T20:25:29.724Z,41.56
2022-10-17T20:30:28.743Z,41.73
2022-10-17T20:35:27.601Z,42.14
2022-10-17T20:40:35.361Z,42.54
2022-10-17T20:45:51.582Z,42.41
2022-10-17T20:50:51.717Z,42.06
2022-10-17T20:56:03.213Z,42.14
2022-10-17T21:01:08.514Z,42.32
2022-10-17T21:06:10.257Z,42.79
2022-10-17T21:11:14.116Z,42.87
2022-10-17T21:16:17.322Z,43.41
2022-10-17T21:21:18.386Z,43.38
2022-10-17T21:26:18.658Z,43.09
2022-10-17T21:31:22.376Z,43.37
2022-10-17T21:36:24.182Z,43.58
2022-10-17T21:41:24.974Z,44.00
2022-10-17T21:46:26.073Z,44.05
2022-10-17T21:51:26.460Z,44.11
2022-10-17T21:56:28.310Z,44.01
2022-10-17T22:01:30.074Z,44.22
2022-10-17T22:06:40.106Z,45.37
2022-10-17T22:11:40.117Z,45.18
2022-10-17T22:16:41.217Z,45.00
2022-10-17T22:21:47.847Z,44.82
2022-10-17T22:26:47.449Z,44.71
2022-10-17T22:31:47.740Z,44.83
2022-10-17T22:36:47.883Z,44.98
2022-10-17T22:41:46.933Z,45.05
2022-10-17T22:46:47.123Z,45.24
2022-10-17T22:51:45.956Z,45.64
2022-10-17T22:56:45.483Z,45.48
2022-10-17T23:01:45.267Z,45.47
2022-10-17T23:06:46.593Z,45.58
2022-10-17T23:11:45.656Z,45.55
2022-10-17T23:16:44.488Z,46.06
2022-10-17T23:21:43.273Z,46.13
2022-10-17T23:26:47.640Z,46.21
2022-10-17T23:31:48.515Z,46.25
2022-10-17T23:36:50.541Z,46.56
2022-10-17T23:41:50.730Z,46.61
2022-10-17T23:46:49.565Z,46.75
2022-10-17T23:51:48.601Z,46.28
2022-10-17T23:56:47.447Z,46.55
